Grand Narrows, Canada
Current Conditions -  °F | °C
As of 3:00 AM on Monday 22 Dec 2014 (Local Time) from CYPD Reporting Station
Overcast Overcast  
Wind Chill: 27°   Ceiling: 1900
Heat Index: 27°   Visibility: 9mi
Dew Point: 21°   Wind: 2mph
Humidity: 80%   Direction: NA
Pressure: 30.39"   Gusts: NA
Location:  45.95°N, 60.78°W
Report Text: CYPD 220700Z AUTO VRB02KT 9SM OVC019 M03/M06 A3039 RMK SLP296
Loading
Personal Weather Stations






























Interactive Weather Map New forecast layout! Learn more

10-Day Weather Forecast

Advertisements
Track Severe Weather on mobile